Time;durP1;ratioP1;P1;durP2;ratioP2;P2;SDS_P1;SDS_P2;PMS_P1;PMS_P2;Temp;Humidity;BMP_temperature;BMP_pressure;BME280_temperature;BME280_humidity;BME280_pressure;Samples;Min_cycle;Max_cycle;Signal;HPM_P1;HPM_P2
2021/09/03 00:01:46;;;;;;;0.80;0.50;;;19.90;78.10;;;;;;5090328;28;20035;-62
2021/09/03 00:04:14;;;;;;;1.65;0.90;;;19.80;78.20;;;;;;5109003;28;20023;-65
2021/09/03 00:06:41;;;;;;;2.25;1.00;;;19.80;78.40;;;;;;5108632;28;20024;-64
2021/09/03 00:09:09;;;;;;;2.05;0.75;;;19.90;78.30;;;;;;5089553;28;20392;-69
2021/09/03 00:11:37;;;;;;;1.95;0.60;;;20.00;78.20;;;;;;5107469;28;20024;-71
2021/09/03 00:14:04;;;;;;;2.80;1.02;;;20.00;78.00;;;;;;5109493;28;20024;-67
2021/09/03 00:16:32;;;;;;;2.83;0.88;;;20.00;78.10;;;;;;5090644;28;20114;-66
2021/09/03 00:18:59;;;;;;;1.25;0.60;;;20.00;78.10;;;;;;5091594;28;20110;-61
2021/09/03 00:21:27;;;;;;;3.15;0.90;;;20.10;78.40;;;;;;5110172;28;20035;-65
2021/09/03 00:23:54;;;;;;;4.63;1.38;;;20.10;78.00;;;;;;5109385;28;20089;-65
2021/09/03 00:26:22;;;;;;;2.45;0.47;;;20.20;77.60;;;;;;5109826;28;20036;-63
2021/09/03 00:28:49;;;;;;;4.13;0.90;;;20.20;77.40;;;;;;5109633;28;20055;-64
2021/09/03 00:31:16;;;;;;;2.60;1.10;;;20.40;77.00;;;;;;5108952;28;20015;-65
2021/09/03 00:33:44;;;;;;;1.58;0.90;;;20.30;77.10;;;;;;5109958;28;20020;-73
2021/09/03 00:36:11;;;;;;;2.83;0.73;;;20.40;76.80;;;;;;5111077;28;20019;-63
2021/09/03 00:38:39;;;;;;;3.38;0.85;;;20.40;77.20;;;;;;5108898;28;20496;-69
2021/09/03 00:41:06;;;;;;;1.38;0.80;;;20.50;76.30;;;;;;5090600;28;20056;-73
2021/09/03 00:43:35;;;;;;;5.28;0.88;;;20.50;76.70;;;;;;5108761;28;20046;-67
2021/09/03 00:46:02;;;;;;;2.38;1.00;;;20.50;76.70;;;;;;5109021;28;20028;-65
2021/09/03 00:48:30;;;;;;;1.33;0.75;;;20.50;76.40;;;;;;5090736;28;20028;-56
2021/09/03 00:50:58;;;;;;;2.03;0.82;;;20.50;76.50;;;;;;5092226;28;20146;-62
2021/09/03 00:53:26;;;;;;;3.40;1.48;;;20.60;76.30;;;;;;5108617;28;20025;-61
2021/09/03 00:55:53;;;;;;;2.88;0.95;;;20.80;75.60;;;;;;5108776;28;20126;-66
2021/09/03 00:58:21;;;;;;;2.45;1.13;;;20.80;75.40;;;;;;5109419;28;20055;-64
2021/09/03 01:00:49;;;;;;;2.35;0.98;;;20.70;76.20;;;;;;5112240;28;20035;-71
2021/09/03 01:03:18;;;;;;;1.75;1.08;;;20.80;75.50;;;;;;5108451;28;20110;-67
2021/09/03 01:05:45;;;;;;;8.90;1.10;;;21.10;74.70;;;;;;5108776;28;20039;-69
2021/09/03 01:08:13;;;;;;;5.22;1.52;;;21.30;73.80;;;;;;5108109;28;20024;-62
2021/09/03 01:10:41;;;;;;;4.78;1.23;;;21.30;73.60;;;;;;5089767;28;20034;-64
2021/09/03 01:13:08;;;;;;;1.52;0.82;;;21.50;73.20;;;;;;5108721;28;20103;-63
2021/09/03 01:15:36;;;;;;;4.53;0.80;;;21.40;73.70;;;;;;5108916;28;20039;-75
2021/09/03 01:18:05;;;;;;;2.33;1.15;;;21.50;73.10;;;;;;5109000;28;20027;-52
2021/09/03 01:20:33;;;;;;;4.43;1.60;;;21.60;72.70;;;;;;5109885;28;20466;-64
2021/09/03 01:23:00;;;;;;;4.30;1.50;;;21.60;72.80;;;;;;5108319;28;20024;-66
2021/09/03 01:25:28;;;;;;;3.22;1.42;;;21.80;72.30;;;;;;5108310;28;20362;-67
2021/09/03 01:27:55;;;;;;;4.43;1.10;;;21.90;71.90;;;;;;5093491;28;20031;-59
2021/09/03 01:30:23;;;;;;;3.53;1.25;;;22.00;71.70;;;;;;5097451;28;20011;-66
2021/09/03 01:32:51;;;;;;;2.00;0.90;;;22.00;71.60;;;;;;5110426;28;20034;-68
2021/09/03 01:35:18;;;;;;;6.63;1.50;;;21.80;72.10;;;;;;5111858;28;20423;-65
2021/09/03 01:37:45;;;;;;;4.30;1.30;;;22.00;71.20;;;;;;5108109;28;20030;-67
2021/09/03 01:40:13;;;;;;;2.55;1.33;;;22.10;71.00;;;;;;5104650;28;20100;-64
2021/09/03 01:42:41;;;;;;;2.95;1.13;;;22.10;70.90;;;;;;5110069;28;20099;-65
2021/09/03 01:45:09;;;;;;;2.45;0.98;;;22.20;70.90;;;;;;5110171;28;20112;-61
2021/09/03 01:47:36;;;;;;;2.05;1.00;;;22.10;71.00;;;;;;5109918;28;20427;-65
2021/09/03 01:50:05;;;;;;;2.83;1.45;;;22.00;71.30;;;;;;5100028;28;20085;-59
2021/09/03 01:52:33;;;;;;;4.07;1.00;;;22.00;71.50;;;;;;5110655;28;20080;-62
2021/09/03 01:55:00;;;;;;;1.02;0.73;;;22.10;71.10;;;;;;5106271;28;20106;-62
2021/09/03 01:57:41;;;;;;;2.92;1.20;;;22.10;71.70;;;;;;5106849;28;20032;-66
2021/09/03 02:00:09;;;;;;;3.90;1.30;;;22.30;71.40;;;;;;5104296;28;20369;-62
2021/09/03 02:02:37;;;;;;;5.75;1.17;;;22.20;71.00;;;;;;5106677;28;20104;-66
2021/09/03 02:05:05;;;;;;;2.72;1.13;;;22.10;71.50;;;;;;5088272;28;20548;-63
2021/09/03 02:07:33;;;;;;;3.85;1.52;;;22.20;71.10;;;;;;5109950;28;20458;-63
2021/09/03 02:10:10;;;;;;;6.40;1.42;;;22.50;71.10;;;;;;5101584;28;20343;-63
2021/09/03 02:12:37;;;;;;;2.90;1.45;;;22.50;70.30;;;;;;5109848;28;20039;-65
2021/09/03 02:15:09;;;;;;;11.07;1.80;;;22.60;70.20;;;;;;5110479;28;20047;-68
2021/09/03 02:17:36;;;;;;;3.45;1.42;;;22.70;69.90;;;;;;5088835;28;20058;-67
2021/09/03 02:20:08;;;;;;;6.50;1.30;;;22.70;69.90;;;;;;5105886;28;20035;-64
2021/09/03 02:22:39;;;;;;;7.72;2.28;;;22.60;69.90;;;;;;5109544;28;20050;-68
2021/09/03 02:25:07;;;;;;;4.28;1.50;;;22.60;70.40;;;;;;5109677;28;20043;-67
2021/09/03 02:27:37;;;;;;;2.88;1.50;;;22.60;70.90;;;;;;5101886;28;20063;-61
2021/09/03 02:30:06;;;;;;;5.85;1.50;;;22.70;70.10;;;;;;5101845;28;20513;-64
2021/09/03 02:32:34;;;;;;;3.92;1.42;;;22.70;69.90;;;;;;5110046;28;20466;-71
2021/09/03 02:35:01;;;;;;;2.40;1.20;;;22.80;69.80;;;;;;5091440;28;20027;-63
2021/09/03 02:37:29;;;;;;;5.35;1.90;;;22.70;70.50;;;;;;5110044;28;20027;-62
2021/09/03 02:39:56;;;;;;;2.33;1.35;;;22.70;69.60;;;;;;5102459;28;20027;-66
2021/09/03 02:42:24;;;;;;;4.72;1.30;;;22.70;70.00;;;;;;5105953;28;20047;-63
2021/09/03 02:44:51;;;;;;;3.17;1.20;;;22.60;70.10;;;;;;5109669;28;20036;-67
2021/09/03 02:47:19;;;;;;;2.78;1.38;;;22.70;70.40;;;;;;5091053;28;20035;-58
2021/09/03 02:49:46;;;;;;;3.38;1.38;;;22.70;70.50;;;;;;5101528;28;20052;-65
2021/09/03 02:52:13;;;;;;;3.53;1.60;;;22.70;70.20;;;;;;5105352;28;20038;-64
2021/09/03 02:54:41;;;;;;;5.47;2.22;;;22.60;70.10;;;;;;5106850;28;20106;-66
2021/09/03 02:57:08;;;;;;;6.32;1.48;;;22.80;70.00;;;;;;5109006;28;20367;-61
2021/09/03 02:59:36;;;;;;;4.38;1.08;;;22.80;69.50;;;;;;5098139;28;20567;-62
2021/09/03 03:02:03;;;;;;;6.15;1.40;;;22.70;70.20;;;;;;5107069;28;20378;-64
2021/09/03 03:04:31;;;;;;;2.78;1.35;;;22.70;69.50;;;;;;5105876;28;20020;-64
2021/09/03 03:06:58;;;;;;;3.72;1.45;;;22.60;70.50;;;;;;5104979;28;20109;-62
2021/09/03 03:09:26;;;;;;;5.47;1.95;;;22.70;69.90;;;;;;5106308;28;20031;-66
2021/09/03 03:11:53;;;;;;;2.72;1.38;;;22.70;70.00;;;;;;5107925;28;20023;-67
2021/09/03 03:14:27;;;;;;;4.38;1.50;;;22.80;70.10;;;;;;5108740;28;20019;-64
2021/09/03 03:16:56;;;;;;;3.92;1.70;;;22.80;71.00;;;;;;5107363;28;20031;-64
2021/09/03 03:19:25;;;;;;;2.08;1.20;;;22.80;70.80;;;;;;5100147;28;20046;-67
2021/09/03 03:21:53;;;;;;;4.72;2.17;;;22.80;70.50;;;;;;5106889;28;20067;-66
2021/09/03 03:24:20;;;;;;;5.30;1.98;;;22.80;69.90;;;;;;5108327;28;20027;-62
2021/09/03 03:26:48;;;;;;;5.32;1.50;;;22.80;71.00;;;;;;5100142;28;20023;-75
2021/09/03 03:29:16;;;;;;;4.57;1.38;;;22.80;70.00;;;;;;5099123;28;20034;-70
2021/09/03 03:31:44;;;;;;;4.50;1.88;;;22.80;70.40;;;;;;5107736;28;20055;-68
2021/09/03 03:34:12;;;;;;;2.28;1.20;;;22.90;70.60;;;;;;5108822;28;20467;-65
2021/09/03 03:36:39;;;;;;;1.80;0.95;;;22.80;71.00;;;;;;5108946;28;20155;-68
2021/09/03 03:39:07;;;;;;;6.03;1.67;;;22.70;71.60;;;;;;5100840;28;20046;-71
2021/09/03 03:41:35;;;;;;;7.22;1.38;;;22.70;70.00;;;;;;5103707;28;20059;-63
2021/09/03 03:44:03;;;;;;;3.08;1.05;;;22.60;70.70;;;;;;5100797;28;20020;-68
2021/09/03 03:46:30;;;;;;;4.13;2.13;;;22.60;70.90;;;;;;5100968;28;20032;-75
2021/09/03 03:48:58;;;;;;;5.30;1.50;;;22.80;69.70;;;;;;5083475;28;20458;-69
2021/09/03 03:51:31;;;;;;;3.03;1.17;;;22.80;69.90;;;;;;5103123;28;20035;-62
2021/09/03 03:53:59;;;;;;;2.38;1.10;;;22.70;70.40;;;;;;5108175;28;20042;-70
2021/09/03 03:56:26;;;;;;;3.75;1.25;;;22.70;70.90;;;;;;5090021;28;20043;-64
2021/09/03 03:58:54;;;;;;;7.18;1.50;;;22.80;70.40;;;;;;5102865;28;20023;-67
2021/09/03 04:01:21;;;;;;;3.92;1.63;;;22.80;69.80;;;;;;5103440;28;20027;-64
2021/09/03 04:03:49;;;;;;;6.20;1.45;;;22.80;69.70;;;;;;5108028;28;20076;-72
2021/09/03 04:06:16;;;;;;;5.18;1.55;;;22.90;69.40;;;;;;5103618;28;21197;-70
2021/09/03 04:08:44;;;;;;;2.90;1.30;;;22.90;69.60;;;;;;5098501;28;20393;-68
2021/09/03 04:11:11;;;;;;;5.05;1.38;;;22.70;71.20;;;;;;5102646;28;20023;-72
2021/09/03 04:13:38;;;;;;;5.63;1.73;;;22.80;70.40;;;;;;5107631;28;20374;-68
2021/09/03 04:16:06;;;;;;;7.55;2.20;;;22.70;71.40;;;;;;5107779;28;20340;-66
2021/09/03 04:18:33;;;;;;;4.95;1.25;;;22.70;71.50;;;;;;5077598;28;20051;-68
2021/09/03 04:21:01;;;;;;;5.00;1.95;;;22.70;70.90;;;;;;5106226;28;20428;-71
2021/09/03 04:23:28;;;;;;;4.63;1.73;;;22.80;70.80;;;;;;5107641;28;20028;-67
2021/09/03 04:25:56;;;;;;;2.55;1.00;;;22.80;70.50;;;;;;5107388;28;20043;-70
2021/09/03 04:28:49;;;;;;;5.93;1.45;;;22.80;70.40;;;;;;5082184;28;20030;-61
2021/09/03 04:31:17;;;;;;;3.35;1.40;;;22.80;69.60;;;;;;5096779;28;20028;-65
2021/09/03 04:33:44;;;;;;;5.72;1.40;;;22.90;70.50;;;;;;5107811;28;20115;-62
2021/09/03 04:36:12;;;;;;;2.78;1.20;;;22.80;69.50;;;;;;5089246;28;20382;-71
2021/09/03 04:38:39;;;;;;;5.47;1.50;;;22.90;70.30;;;;;;5100519;28;20020;-67
2021/09/03 04:41:06;;;;;;;6.38;1.73;;;22.90;70.10;;;;;;5098936;28;20044;-70
2021/09/03 04:43:34;;;;;;;5.88;1.40;;;22.90;70.80;;;;;;5106797;28;20019;-67
2021/09/03 04:46:02;;;;;;;2.30;1.10;;;22.80;69.80;;;;;;5089402;28;20035;-60
2021/09/03 04:48:30;;;;;;;4.00;1.30;;;22.70;70.90;;;;;;5102594;28;20151;-61
2021/09/03 04:50:57;;;;;;;4.45;2.13;;;22.80;70.80;;;;;;5085270;28;20028;-63
2021/09/03 04:53:25;;;;;;;4.78;1.45;;;22.80;70.60;;;;;;5107348;28;20081;-69
2021/09/03 04:55:53;;;;;;;5.35;1.50;;;23.00;69.40;;;;;;5107660;28;20074;-72
2021/09/03 04:58:20;;;;;;;4.00;1.50;;;23.00;70.00;;;;;;5099023;28;20047;-67
2021/09/03 05:00:48;;;;;;;5.47;1.63;;;22.90;70.50;;;;;;5103062;28;20028;-67
2021/09/03 05:03:15;;;;;;;4.55;1.48;;;22.80;70.50;;;;;;5110826;28;20490;-67
2021/09/03 05:05:42;;;;;;;8.15;1.65;;;22.90;70.20;;;;;;5110653;28;20046;-71
2021/09/03 05:08:10;;;;;;;7.93;1.55;;;22.90;69.90;;;;;;5100495;28;20126;-68
2021/09/03 05:10:37;;;;;;;14.40;1.85;;;22.90;70.40;;;;;;5108439;28;20534;-66
2021/09/03 05:13:05;;;;;;;2.65;1.33;;;22.90;70.70;;;;;;5109841;28;20039;-63
2021/09/03 05:15:37;;;;;;;5.20;1.27;;;22.80;70.40;;;;;;5110643;28;20047;-68
2021/09/03 05:18:05;;;;;;;4.03;1.42;;;22.70;70.40;;;;;;5102446;28;20052;-68
2021/09/03 05:20:33;;;;;;;8.10;1.48;;;22.70;70.40;;;;;;5104581;28;20020;-70
2021/09/03 05:23:00;;;;;;;5.75;1.33;;;22.60;71.20;;;;;;5092115;28;20020;-66
2021/09/03 05:25:28;;;;;;;5.05;1.20;;;22.60;71.90;;;;;;5111179;28;20092;-66
2021/09/03 05:27:55;;;;;;;5.40;1.33;;;22.50;71.90;;;;;;5104595;28;20040;-65
2021/09/03 05:30:23;;;;;;;10.38;2.13;;;22.40;72.10;;;;;;5107711;28;20092;-72
2021/09/03 05:32:53;;;;;;;4.07;1.48;;;22.40;72.60;;;;;;5103058;28;20524;-72
2021/09/03 05:35:24;;;;;;;6.22;1.83;;;22.30;72.90;;;;;;5111540;28;20050;-68
2021/09/03 05:37:52;;;;;;;11.75;1.30;;;22.20;73.30;;;;;;5111078;28;20028;-69
2021/09/03 05:40:19;;;;;;;4.10;1.30;;;22.20;73.70;;;;;;5111361;28;20016;-70
2021/09/03 05:42:47;;;;;;;3.95;1.65;;;22.10;73.90;;;;;;5111518;28;20062;-73
2021/09/03 05:45:14;;;;;;;5.35;1.80;;;22.10;74.50;;;;;;5111602;28;20038;-65
2021/09/03 05:47:46;;;;;;;6.78;1.63;;;22.00;74.70;;;;;;5110793;28;20051;-64
2021/09/03 05:50:27;;;;;;;4.85;1.45;;;22.00;74.80;;;;;;5111487;28;20103;-64
2021/09/03 05:52:55;;;;;;;5.93;1.48;;;22.00;75.20;;;;;;5092996;28;20239;-69
2021/09/03 05:55:22;;;;;;;6.25;1.92;;;22.00;75.50;;;;;;5111190;28;20028;-68
2021/09/03 05:57:53;;;;;;;7.22;1.98;;;22.00;75.50;;;;;;5091869;28;20127;-64
2021/09/03 06:00:21;;;;;;;6.88;2.10;;;22.00;75.40;;;;;;5110450;28;20028;-68
2021/09/03 06:02:48;;;;;;;6.63;1.23;;;22.00;75.40;;;;;;5109217;28;20016;-66
2021/09/03 06:05:15;;;;;;;6.55;1.42;;;22.00;75.50;;;;;;5079631;28;20035;-69
2021/09/03 06:07:43;;;;;;;5.38;1.52;;;21.90;75.50;;;;;;5110750;28;20032;-69
2021/09/03 06:10:11;;;;;;;7.72;1.80;;;21.90;75.80;;;;;;5088582;28;20016;-68
2021/09/03 06:12:39;;;;;;;5.45;1.67;;;21.90;75.90;;;;;;5108226;28;20077;-68
2021/09/03 06:15:08;;;;;;;7.72;1.85;;;21.80;76.10;;;;;;5085919;28;20047;-67
2021/09/03 06:17:35;;;;;;;11.27;2.53;;;21.80;76.50;;;;;;5100954;28;20016;-65
2021/09/03 06:20:07;;;;;;;7.50;2.10;;;21.70;76.50;;;;;;5085034;28;20045;-66
2021/09/03 06:22:35;;;;;;;4.47;1.63;;;21.70;76.90;;;;;;5109296;28;20051;-71
2021/09/03 06:25:03;;;;;;;6.95;1.92;;;21.60;77.00;;;;;;5088036;28;21086;-66
2021/09/03 06:27:30;;;;;;;7.68;2.50;;;21.60;77.10;;;;;;5109988;28;20027;-69
2021/09/03 06:29:58;;;;;;;7.13;2.20;;;21.60;77.50;;;;;;5098708;28;20011;-65
2021/09/03 06:32:29;;;;;;;5.13;1.50;;;21.60;77.60;;;;;;5105706;28;20032;-68
2021/09/03 06:35:01;;;;;;;6.40;2.85;;;21.60;77.70;;;;;;5102371;28;21198;-70
2021/09/03 06:37:28;;;;;;;;;;;21.50;77.80;;;;;;5102293;28;20028;-66
2021/09/03 06:39:57;;;;;;;9.70;2.25;;;21.50;78.00;;;;;;5092452;28;19999;-58
2021/09/03 06:42:26;;;;;;;9.05;2.30;;;21.50;78.10;;;;;;5110313;28;20557;-69
2021/09/03 06:44:54;;;;;;;6.88;2.42;;;21.50;78.10;;;;;;5089568;28;20070;-67
2021/09/03 06:47:21;;;;;;;10.70;2.35;;;21.40;78.20;;;;;;5108682;28;20020;-67
2021/09/03 06:49:49;;;;;;;7.93;2.22;;;21.40;78.70;;;;;;5091572;28;20020;-64
2021/09/03 06:52:16;;;;;;;6.90;2.25;;;21.40;78.80;;;;;;5091641;27;20058;-69
2021/09/03 06:54:44;;;;;;;7.70;2.22;;;21.30;79.10;;;;;;5110278;28;20023;-66
2021/09/03 06:57:11;;;;;;;7.50;2.50;;;21.30;79.10;;;;;;5104500;28;20099;-66
2021/09/03 07:00:01;;;;;;;10.25;2.50;;;21.20;79.40;;;;;;5089324;28;20016;-61
2021/09/03 07:02:28;;;;;;;13.80;3.17;;;21.20;79.50;;;;;;5090924;28;20085;-66
2021/09/03 07:04:56;;;;;;;8.13;2.28;;;21.10;79.80;;;;;;5090269;28;20474;-68
2021/09/03 07:07:36;;;;;;;13.50;2.65;;;21.10;80.00;;;;;;5090437;28;20032;-61
2021/09/03 07:10:03;;;;;;;15.50;2.85;;;21.00;80.20;;;;;;5090648;28;20031;-59
2021/09/03 07:12:31;;;;;;;6.60;2.40;;;21.00;80.40;;;;;;5090427;28;20470;-63
2021/09/03 07:14:58;;;;;;;10.80;2.38;;;20.90;80.40;;;;;;5089736;28;20031;-58
2021/09/03 07:17:25;;;;;;;7.63;2.72;;;20.90;80.60;;;;;;5089260;28;20039;-63
2021/09/03 07:19:53;;;;;;;15.00;3.17;;;20.80;80.80;;;;;;5070726;28;20497;-61
2021/09/03 07:22:20;;;;;;;10.80;3.38;;;20.80;81.20;;;;;;5070929;28;20150;-64
2021/09/03 07:24:47;;;;;;;6.72;2.38;;;20.70;81.30;;;;;;5089267;28;20036;-66
2021/09/03 07:27:15;;;;;;;9.73;2.72;;;20.60;81.60;;;;;;5088090;28;20024;-62
2021/09/03 07:29:42;;;;;;;10.50;2.63;;;20.60;81.90;;;;;;5088767;28;20043;-61
2021/09/03 07:32:10;;;;;;;8.93;3.08;;;20.50;82.20;;;;;;5089150;28;20162;-62
2021/09/03 07:34:38;;;;;;;8.75;2.17;;;20.50;82.60;;;;;;5055423;28;20012;-63
2021/09/03 07:37:05;;;;;;;8.05;2.40;;;20.40;82.80;;;;;;5089469;28;20028;-60
2021/09/03 07:39:33;;;;;;;7.22;2.75;;;20.40;83.10;;;;;;5088820;28;20080;-62
2021/09/03 07:42:00;;;;;;;7.53;2.38;;;20.30;83.20;;;;;;5070206;28;20040;-63
2021/09/03 07:44:31;;;;;;;6.43;2.10;;;20.30;83.30;;;;;;5090709;28;20028;-67
2021/09/03 07:46:58;;;;;;;9.38;2.15;;;20.20;83.50;;;;;;5090536;28;20020;-67
2021/09/03 07:49:26;;;;;;;8.38;2.60;;;20.20;83.60;;;;;;5071314;28;20020;-62
2021/09/03 07:51:53;;;;;;;15.70;3.05;;;20.20;83.90;;;;;;5088841;28;20028;-61
2021/09/03 07:54:21;;;;;;;12.60;3.22;;;20.10;83.90;;;;;;5088856;28;20062;-65
2021/09/03 07:56:48;;;;;;;11.88;3.00;;;20.10;84.10;;;;;;5070011;28;20055;-63
2021/09/03 07:59:16;;;;;;;10.70;2.88;;;20.10;84.30;;;;;;5088853;28;20101;-67
2021/09/03 08:01:43;;;;;;;15.40;2.95;;;20.00;84.50;;;;;;5088137;28;20055;-63
2021/09/03 08:04:11;;;;;;;9.98;2.65;;;20.00;84.60;;;;;;5070575;28;20119;-69
2021/09/03 08:06:39;;;;;;;9.98;2.72;;;20.00;84.70;;;;;;5088574;28;20123;-67
2021/09/03 08:09:06;;;;;;;11.57;3.65;;;20.00;84.80;;;;;;5088938;28;20016;-68
2021/09/03 08:11:34;;;;;;;12.82;3.08;;;20.00;85.00;;;;;;5087924;28;20652;-71
2021/09/03 08:14:01;;;;;;;10.07;2.58;;;19.90;85.10;;;;;;5070655;28;20024;-66
2021/09/03 08:16:37;;;;;;;10.25;2.85;;;19.90;84.90;;;;;;5088732;28;20031;-66
2021/09/03 08:19:04;;;;;;;15.98;2.90;;;19.90;85.20;;;;;;5088871;28;20036;-66
2021/09/03 08:21:32;;;;;;;11.05;2.90;;;19.90;85.20;;;;;;5087922;28;20557;-66
2021/09/03 08:24:00;;;;;;;7.43;2.28;;;19.90;85.40;;;;;;5088394;28;20124;-64
2021/09/03 08:26:28;;;;;;;9.55;2.63;;;19.90;85.50;;;;;;5089192;28;20632;-64
2021/09/03 08:28:59;;;;;;;8.30;2.90;;;19.80;85.60;;;;;;5070313;28;20035;-62
2021/09/03 08:31:29;;;;;;;5.57;2.45;;;19.80;85.60;;;;;;5088876;28;20498;-68
2021/09/03 08:33:57;;;;;;;9.07;2.78;;;19.80;85.70;;;;;;5054088;28;20483;-64
2021/09/03 08:36:25;;;;;;;15.02;3.17;;;19.80;85.80;;;;;;5072256;28;20078;-74
2021/09/03 08:38:52;;;;;;;11.63;3.30;;;19.70;85.80;;;;;;5093452;28;20024;-70
2021/09/03 08:41:24;;;;;;;8.45;3.20;;;19.70;86.00;;;;;;5091925;28;20060;-69
2021/09/03 08:44:00;;;;;;;9.60;3.20;;;19.70;85.90;;;;;;5094269;28;20035;-67
2021/09/03 08:46:28;;;;;;;9.85;3.30;;;19.70;86.30;;;;;;5093649;28;20060;-71
2021/09/03 08:48:57;;;;;;;14.68;3.10;;;19.70;86.30;;;;;;5094830;28;20024;-73
2021/09/03 08:51:24;;;;;;;9.30;3.25;;;19.70;86.50;;;;;;5095076;28;20378;-73
2021/09/03 08:53:52;;;;;;;15.90;3.80;;;19.70;86.50;;;;;;5093993;28;20035;-63
2021/09/03 08:56:21;;;;;;;8.10;2.92;;;19.60;86.70;;;;;;5074849;28;20176;-61
2021/09/03 08:58:49;;;;;;;12.68;2.97;;;19.60;86.70;;;;;;5095410;28;20058;-66
2021/09/03 09:01:18;;;;;;;10.63;2.80;;;19.60;86.50;;;;;;5095770;28;20517;-68
2021/09/03 09:03:52;;;;;;;10.00;3.70;;;19.60;86.80;;;;;;5076483;28;20040;-74
2021/09/03 09:06:25;;;;;;;10.35;3.35;;;19.60;86.80;;;;;;5093294;28;20047;-73
2021/09/03 09:09:04;;;;;;;9.55;2.72;;;19.60;86.90;;;;;;5093689;28;20027;-65
2021/09/03 09:11:35;;;;;;;8.73;2.95;;;19.50;86.90;;;;;;5081230;28;20441;-70
2021/09/03 09:14:07;;;;;;;13.30;3.70;;;19.50;87.20;;;;;;5088916;28;20080;-63
2021/09/03 09:16:38;;;;;;;9.45;3.33;;;19.50;87.20;;;;;;5107728;28;20031;-64
2021/09/03 09:19:08;;;;;;;13.43;4.13;;;19.50;87.30;;;;;;5111307;28;20070;-69
2021/09/03 09:21:40;;;;;;;21.95;6.57;;;19.50;87.40;;;;;;5106402;28;20370;-66
2021/09/03 09:24:11;;;;;;;22.02;7.10;;;19.50;87.30;;;;;;5102218;28;20043;-68
2021/09/03 09:26:54;;;;;;;24.77;6.90;;;19.50;87.40;;;;;;5106561;28;20062;-66
2021/09/03 09:29:26;;;;;;;18.88;6.30;;;19.50;87.30;;;;;;5091774;28;20020;-69
2021/09/03 09:32:07;;;;;;;28.48;7.18;;;19.50;87.30;;;;;;5105251;28;20034;-65
2021/09/03 09:34:38;;;;;;;27.53;6.70;;;19.50;87.50;;;;;;5098302;28;20035;-62
2021/09/03 09:37:11;;;;;;;24.88;6.55;;;19.50;87.50;;;;;;5091771;28;20131;-67
2021/09/03 09:39:58;;;;;;;29.73;7.28;;;19.50;87.40;;;;;;5099267;28;20034;-62
2021/09/03 09:42:32;;;;;;;18.38;6.35;;;19.50;87.50;;;;;;5104296;28;20048;-67
2021/09/03 09:45:08;;;;;;;22.92;6.85;;;19.50;87.50;;;;;;5083204;28;20598;-62
2021/09/03 09:47:37;;;;;;;21.15;6.28;;;19.50;87.60;;;;;;5111049;28;20484;-63
2021/09/03 09:50:23;;;;;;;16.95;5.68;;;19.50;88.20;;;;;;5107352;28;20363;-63
2021/09/03 09:52:50;;;;;;;17.95;5.65;;;19.50;87.70;;;;;;5110292;28;20062;-63
2021/09/03 09:55:18;;;;;;;23.17;6.57;;;19.50;87.70;;;;;;5098031;28;20016;-61
2021/09/03 09:57:50;;;;;;;19.90;5.22;;;19.50;87.70;;;;;;5111376;28;20328;-67
2021/09/03 10:00:18;;;;;;;20.15;6.32;;;19.50;87.70;;;;;;5107936;28;20061;-58
2021/09/03 10:02:47;;;;;;;16.85;6.22;;;19.50;87.70;;;;;;5108637;28;20393;-60
2021/09/03 10:05:14;;;;;;;17.70;5.43;;;19.50;87.70;;;;;;5102370;28;20024;-68
2021/09/03 10:07:42;;;;;;;17.05;5.18;;;19.50;87.80;;;;;;5110629;28;20046;-66
2021/09/03 10:10:10;;;;;;;18.25;5.70;;;19.50;87.70;;;;;;5092331;28;20382;-70
2021/09/03 10:12:38;;;;;;;16.50;5.45;;;19.50;87.70;;;;;;5109647;28;20035;-64
2021/09/03 10:15:06;;;;;;;17.25;5.63;;;19.50;87.80;;;;;;5098100;28;20054;-69
2021/09/03 10:17:33;;;;;;;15.18;4.75;;;19.50;87.70;;;;;;5092649;28;20024;-62
2021/09/03 10:20:01;;;;;;;20.45;6.07;;;19.50;87.70;;;;;;5092493;28;20061;-70
2021/09/03 10:22:47;;;;;;;17.20;5.55;;;19.50;87.80;;;;;;5088240;28;20070;-63
2021/09/03 10:25:14;;;;;;;18.98;4.97;;;19.50;87.70;;;;;;5094939;28;20384;-64
2021/09/03 10:28:02;;;;;;;19.95;6.38;;;19.40;87.60;;;;;;5109863;28;20019;-68
2021/09/03 10:30:29;;;;;;;14.65;4.93;;;19.40;87.60;;;;;;5106093;28;20031;-66
2021/09/03 10:33:13;;;;;;;18.80;5.60;;;19.40;87.60;;;;;;5109592;28;20084;-73
2021/09/03 10:35:41;;;;;;;17.33;5.70;;;19.40;87.60;;;;;;5092823;28;20076;-66
2021/09/03 10:38:30;;;;;;;15.30;5.47;;;19.40;87.60;;;;;;5105788;28;20497;-74
2021/09/03 10:40:58;;;;;;;14.93;4.97;;;19.40;87.70;;;;;;5108168;28;20032;-73
2021/09/03 10:43:46;;;;;;;17.10;5.60;;;19.40;87.70;;;;;;5109135;28;20055;-63
2021/09/03 10:46:15;;;;;;;11.13;4.50;;;19.40;87.70;;;;;;5101994;28;20453;-62
2021/09/03 10:48:52;;;;;;;20.58;6.00;;;19.40;87.60;;;;;;5106021;28;20448;-69
2021/09/03 10:51:50;;;;;;;16.85;5.75;;;19.30;87.70;;;;;;5106921;28;20159;-60
2021/09/03 10:54:25;;;;;;;15.38;5.22;;;19.30;87.70;;;;;;5100409;28;20062;-64
2021/09/03 10:56:57;;;;;;;12.23;4.65;;;19.30;87.70;;;;;;5105309;28;20050;-64
2021/09/03 10:59:25;;;;;;;14.82;5.50;;;19.30;87.90;;;;;;5109567;28;20020;-73
2021/09/03 11:01:56;;;;;;;13.57;4.20;;;19.30;88.00;;;;;;5109656;28;20047;-70
2021/09/03 11:04:25;;;;;;;17.23;5.18;;;19.30;87.80;;;;;;5105091;28;20466;-72
2021/09/03 11:07:02;;;;;;;14.55;4.38;;;19.30;88.00;;;;;;5086246;28;20550;-64
2021/09/03 11:09:31;;;;;;;12.50;5.18;;;19.30;87.90;;;;;;5108513;28;20027;-69
2021/09/03 11:12:11;;;;;;;14.52;4.63;;;19.30;87.90;;;;;;5112502;28;20057;-66
2021/09/03 11:14:43;;;;;;;15.25;4.40;;;19.20;87.70;;;;;;5102721;28;20477;-72
2021/09/03 11:17:15;;;;;;;15.63;5.10;;;19.30;87.70;;;;;;5092053;28;20428;-74
2021/09/03 11:19:48;;;;;;;13.95;4.43;;;19.30;87.90;;;;;;5087331;28;20030;-64
2021/09/03 11:22:22;;;;;;;17.75;4.90;;;19.30;87.80;;;;;;5101715;28;20382;-67
2021/09/03 11:25:03;;;;;;;14.43;4.80;;;19.30;87.90;;;;;;5075979;28;20098;-63
2021/09/03 11:27:31;;;;;;;16.40;4.77;;;19.30;88.00;;;;;;5109058;28;20083;-61
2021/09/03 11:30:02;;;;;;;16.20;4.13;;;19.30;87.90;;;;;;5108958;28;20031;-60
2021/09/03 11:32:32;;;;;;;16.52;5.03;;;19.20;87.70;;;;;;5109286;28;20413;-62
2021/09/03 11:35:01;;;;;;;16.77;5.55;;;19.20;87.80;;;;;;5099907;28;20123;-66
2021/09/03 11:37:43;;;;;;;11.25;3.75;;;19.20;87.80;;;;;;5109033;28;20038;-63
2021/09/03 11:40:30;;;;;;;15.38;4.63;;;19.20;87.80;;;;;;5108826;28;20038;-65
2021/09/03 11:43:07;;;;;;;11.45;4.10;;;19.20;87.80;;;;;;5106507;28;20050;-68
2021/09/03 11:45:42;;;;;;;9.82;4.03;;;19.20;87.80;;;;;;5096104;28;20406;-65
2021/09/03 11:48:15;;;;;;;12.60;4.43;;;19.20;87.80;;;;;;5091258;28;20035;-63
2021/09/03 11:50:48;;;;;;;13.13;4.32;;;19.20;87.90;;;;;;5108148;28;20043;-67
2021/09/03 11:53:23;;;;;;;13.73;4.38;;;19.20;87.90;;;;;;5107837;28;20129;-67
2021/09/03 11:55:55;;;;;;;11.50;3.88;;;19.20;87.80;;;;;;5094300;28;20080;-63
2021/09/03 11:58:24;;;;;;;11.45;3.88;;;19.20;87.80;;;;;;5104808;28;20028;-66
2021/09/03 12:00:55;;;;;;;9.45;4.50;;;19.20;87.70;;;;;;5108771;28;20055;-70
2021/09/03 12:03:44;;;;;;;11.80;4.10;;;19.20;87.80;;;;;;5090006;28;20070;-69
2021/09/03 12:06:18;;;;;;;9.32;4.07;;;19.20;87.90;;;;;;5096531;28;20560;-63
2021/09/03 12:08:46;;;;;;;12.95;4.00;;;19.10;87.70;;;;;;5107659;28;20033;-65
2021/09/03 12:11:23;;;;;;;12.13;4.03;;;19.20;87.70;;;;;;5101782;28;20069;-61
2021/09/03 12:13:58;;;;;;;8.52;3.65;;;19.20;87.70;;;;;;5107597;28;20061;-57
2021/09/03 12:16:37;;;;;;;11.30;4.30;;;19.20;87.70;;;;;;5096642;28;20042;-60
2021/09/03 12:19:05;;;;;;;12.13;3.75;;;19.20;87.80;;;;;;5104927;28;21265;-64
2021/09/03 12:21:52;;;;;;;15.23;4.90;;;19.10;87.70;;;;;;5100637;28;20546;-60
2021/09/03 12:24:23;;;;;;;10.55;4.05;;;19.10;87.80;;;;;;5087432;28;20073;-58
2021/09/03 12:26:57;;;;;;;8.90;3.50;;;19.10;87.80;;;;;;5080487;28;20040;-66
2021/09/03 12:29:32;;;;;;;11.15;3.92;;;19.10;87.80;;;;;;5089565;28;20076;-63
2021/09/03 12:32:05;;;;;;;11.77;3.95;;;19.10;87.70;;;;;;5103686;28;20031;-60
2021/09/03 12:34:34;;;;;;;8.77;3.20;;;19.10;87.80;;;;;;5103402;28;20038;-65
2021/09/03 12:37:07;;;;;;;8.15;3.20;;;19.10;87.70;;;;;;5101434;28;20027;-69
2021/09/03 12:39:35;;;;;;;10.18;3.70;;;19.10;87.70;;;;;;5089362;28;20072;-63
2021/09/03 12:42:16;;;;;;;11.27;4.10;;;19.10;87.70;;;;;;5107120;28;21269;-63
2021/09/03 12:44:44;;;;;;;12.95;3.30;;;19.10;87.70;;;;;;5095983;28;20040;-65
2021/09/03 12:47:12;;;;;;;9.20;3.53;;;19.10;87.60;;;;;;5107736;28;20034;-66
2021/09/03 12:49:44;;;;;;;10.43;3.88;;;19.10;87.60;;;;;;5085612;28;20114;-65
2021/09/03 12:52:24;;;;;;;9.90;3.95;;;19.10;87.70;;;;;;5100161;28;20028;-63
2021/09/03 12:55:18;;;;;;;10.73;3.78;;;19.00;87.70;;;;;;5105159;28;20109;-67
2021/09/03 12:57:45;;;;;;;11.90;3.20;;;19.10;87.70;;;;;;5108376;28;20039;-70